sensor_id;sensor_type;location;lat;lon;timestamp;temperature;humidity
71668;DHT22;59504;54.806;9.640;2023-10-31T00:00:24;11.00;80.20
71668;DHT22;59504;54.806;9.640;2023-10-31T00:02:44;10.90;80.00
71668;DHT22;59504;54.806;9.640;2023-10-31T00:05:05;10.90;79.80
71668;DHT22;59504;54.806;9.640;2023-10-31T00:07:25;10.90;79.80
71668;DHT22;59504;54.806;9.640;2023-10-31T00:09:46;11.00;79.90
71668;DHT22;59504;54.806;9.640;2023-10-31T00:12:06;10.90;80.20
71668;DHT22;59504;54.806;9.640;2023-10-31T00:14:27;10.90;80.10
71668;DHT22;59504;54.806;9.640;2023-10-31T00:16:48;11.00;80.20
71668;DHT22;59504;54.806;9.640;2023-10-31T00:19:09;11.00;80.20
71668;DHT22;59504;54.806;9.640;2023-10-31T00:21:30;11.00;80.20
71668;DHT22;59504;54.806;9.640;2023-10-31T00:23:50;10.90;80.10
71668;DHT22;59504;54.806;9.640;2023-10-31T00:26:11;11.00;80.20
71668;DHT22;59504;54.806;9.640;2023-10-31T00:28:31;10.90;80.30
71668;DHT22;59504;54.806;9.640;2023-10-31T00:30:52;10.90;80.40
71668;DHT22;59504;54.806;9.640;2023-10-31T00:33:12;11.00;80.60
71668;DHT22;59504;54.806;9.640;2023-10-31T00:35:33;10.90;80.80
71668;DHT22;59504;54.806;9.640;2023-10-31T00:37:53;10.90;80.70
71668;DHT22;59504;54.806;9.640;2023-10-31T00:40:14;10.90;80.90
71668;DHT22;59504;54.806;9.640;2023-10-31T00:42:39;10.90;81.00
71668;DHT22;59504;54.806;9.640;2023-10-31T00:45:02;10.90;81.20
71668;DHT22;59504;54.806;9.640;2023-10-31T00:47:23;10.90;81.20
71668;DHT22;59504;54.806;9.640;2023-10-31T00:49:43;10.90;81.60
71668;DHT22;59504;54.806;9.640;2023-10-31T00:52:04;11.00;82.00
71668;DHT22;59504;54.806;9.640;2023-10-31T00:54:25;10.90;82.00
71668;DHT22;59504;54.806;9.640;2023-10-31T00:56:45;10.90;81.90
71668;DHT22;59504;54.806;9.640;2023-10-31T00:59:06;10.90;81.90
71668;DHT22;59504;54.806;9.640;2023-10-31T01:01:26;10.90;82.10
71668;DHT22;59504;54.806;9.640;2023-10-31T01:03:47;11.00;82.00
71668;DHT22;59504;54.806;9.640;2023-10-31T01:06:07;11.00;82.00
71668;DHT22;59504;54.806;9.640;2023-10-31T01:08:28;10.90;81.80
71668;DHT22;59504;54.806;9.640;2023-10-31T01:10:50;11.00;82.00
71668;DHT22;59504;54.806;9.640;2023-10-31T01:13:10;10.90;82.00
71668;DHT22;59504;54.806;9.640;2023-10-31T01:15:11;10.90;82.00
71668;DHT22;59504;54.806;9.640;2023-10-31T01:17:11;11.00;82.10
71668;DHT22;59504;54.806;9.640;2023-10-31T01:19:12;10.90;82.00
71668;DHT22;59504;54.806;9.640;2023-10-31T01:21:13;11.00;82.10
71668;DHT22;59504;54.806;9.640;2023-10-31T01:23:13;10.90;81.90
71668;DHT22;59504;54.806;9.640;2023-10-31T01:25:14;10.90;82.20
71668;DHT22;59504;54.806;9.640;2023-10-31T01:27:14;11.00;82.30
71668;DHT22;59504;54.806;9.640;2023-10-31T01:29:15;11.00;82.10
71668;DHT22;59504;54.806;9.640;2023-10-31T01:31:15;11.00;82.50
71668;DHT22;59504;54.806;9.640;2023-10-31T01:33:16;10.90;82.30
71668;DHT22;59504;54.806;9.640;2023-10-31T01:35:17;11.00;82.10
71668;DHT22;59504;54.806;9.640;2023-10-31T01:37:17;11.00;82.30
71668;DHT22;59504;54.806;9.640;2023-10-31T01:39:19;10.90;82.50
71668;DHT22;59504;54.806;9.640;2023-10-31T01:41:20;11.10;82.50
71668;DHT22;59504;54.806;9.640;2023-10-31T01:43:40;11.00;82.00
71668;DHT22;59504;54.806;9.640;2023-10-31T01:46:01;11.10;82.10
71668;DHT22;59504;54.806;9.640;2023-10-31T01:48:21;11.00;82.00
71668;DHT22;59504;54.806;9.640;2023-10-31T01:50:44;11.00;81.90
71668;DHT22;59504;54.806;9.640;2023-10-31T01:53:04;11.10;82.00
71668;DHT22;59504;54.806;9.640;2023-10-31T01:55:25;11.00;82.00
71668;DHT22;59504;54.806;9.640;2023-10-31T01:57:47;11.10;81.90
71668;DHT22;59504;54.806;9.640;2023-10-31T02:00:09;11.20;82.10
71668;DHT22;59504;54.806;9.640;2023-10-31T02:02:30;11.10;81.90
71668;DHT22;59504;54.806;9.640;2023-10-31T02:04:52;11.10;81.90
71668;DHT22;59504;54.806;9.640;2023-10-31T02:07:12;11.10;82.00
71668;DHT22;59504;54.806;9.640;2023-10-31T02:09:33;11.20;82.20
71668;DHT22;59504;54.806;9.640;2023-10-31T02:11:38;11.20;82.20
71668;DHT22;59504;54.806;9.640;2023-10-31T02:13:38;11.10;82.10
71668;DHT22;59504;54.806;9.640;2023-10-31T02:15:40;11.10;82.20
71668;DHT22;59504;54.806;9.640;2023-10-31T02:17:40;11.30;82.70
71668;DHT22;59504;54.806;9.640;2023-10-31T02:19:41;11.30;83.50
71668;DHT22;59504;54.806;9.640;2023-10-31T02:21:41;11.10;83.80
71668;DHT22;59504;54.806;9.640;2023-10-31T02:23:42;11.20;83.30
71668;DHT22;59504;54.806;9.640;2023-10-31T02:25:43;11.20;82.80
71668;DHT22;59504;54.806;9.640;2023-10-31T02:27:43;11.30;82.90
71668;DHT22;59504;54.806;9.640;2023-10-31T02:29:44;11.30;83.20
71668;DHT22;59504;54.806;9.640;2023-10-31T02:31:45;11.30;82.90
71668;DHT22;59504;54.806;9.640;2023-10-31T02:33:45;11.20;83.30
71668;DHT22;59504;54.806;9.640;2023-10-31T02:35:46;11.20;83.60
71668;DHT22;59504;54.806;9.640;2023-10-31T02:37:46;11.20;84.10
71668;DHT22;59504;54.806;9.640;2023-10-31T02:39:50;11.20;83.90
71668;DHT22;59504;54.806;9.640;2023-10-31T02:42:05;11.20;84.10
71668;DHT22;59504;54.806;9.640;2023-10-31T02:44:07;11.20;84.30
71668;DHT22;59504;54.806;9.640;2023-10-31T02:46:11;11.20;84.10
71668;DHT22;59504;54.806;9.640;2023-10-31T02:48:15;11.30;83.70
71668;DHT22;59504;54.806;9.640;2023-10-31T02:50:35;11.30;84.00
71668;DHT22;59504;54.806;9.640;2023-10-31T02:52:56;11.20;84.30
71668;DHT22;59504;54.806;9.640;2023-10-31T02:55:16;11.20;84.40
71668;DHT22;59504;54.806;9.640;2023-10-31T02:57:37;11.30;84.70
71668;DHT22;59504;54.806;9.640;2023-10-31T02:59:57;11.20;84.90
71668;DHT22;59504;54.806;9.640;2023-10-31T03:02:18;11.30;84.20
71668;DHT22;59504;54.806;9.640;2023-10-31T03:04:39;11.10;84.30
71668;DHT22;59504;54.806;9.640;2023-10-31T03:06:59;11.10;84.10
71668;DHT22;59504;54.806;9.640;2023-10-31T03:09:20;11.20;84.60
71668;DHT22;59504;54.806;9.640;2023-10-31T03:11:40;11.10;84.80
71668;DHT22;59504;54.806;9.640;2023-10-31T03:14:01;11.20;85.40
71668;DHT22;59504;54.806;9.640;2023-10-31T03:16:22;11.10;85.50
71668;DHT22;59504;54.806;9.640;2023-10-31T03:18:42;11.10;85.40
71668;DHT22;59504;54.806;9.640;2023-10-31T03:21:03;11.10;85.30
71668;DHT22;59504;54.806;9.640;2023-10-31T03:23:23;11.10;85.20
71668;DHT22;59504;54.806;9.640;2023-10-31T03:25:44;11.10;85.40
71668;DHT22;59504;54.806;9.640;2023-10-31T03:28:07;11.10;85.40
71668;DHT22;59504;54.806;9.640;2023-10-31T03:30:27;11.10;85.10
71668;DHT22;59504;54.806;9.640;2023-10-31T03:32:45;11.10;85.10
71668;DHT22;59504;54.806;9.640;2023-10-31T03:35:05;11.10;85.10
71668;DHT22;59504;54.806;9.640;2023-10-31T03:37:25;11.10;85.00
71668;DHT22;59504;54.806;9.640;2023-10-31T03:39:46;11.10;85.00
71668;DHT22;59504;54.806;9.640;2023-10-31T03:42:07;11.10;85.20
71668;DHT22;59504;54.806;9.640;2023-10-31T03:44:27;11.10;85.10
71668;DHT22;59504;54.806;9.640;2023-10-31T03:46:48;11.10;85.40
71668;DHT22;59504;54.806;9.640;2023-10-31T03:49:08;11.10;85.60
71668;DHT22;59504;54.806;9.640;2023-10-31T03:51:29;11.10;85.60
71668;DHT22;59504;54.806;9.640;2023-10-31T03:53:50;11.00;85.70
71668;DHT22;59504;54.806;9.640;2023-10-31T03:56:10;11.10;85.80
71668;DHT22;59504;54.806;9.640;2023-10-31T03:58:29;11.00;85.70
71668;DHT22;59504;54.806;9.640;2023-10-31T04:00:49;11.00;85.70
71668;DHT22;59504;54.806;9.640;2023-10-31T04:03:10;11.00;85.80
71668;DHT22;59504;54.806;9.640;2023-10-31T04:05:30;11.00;85.80
71668;DHT22;59504;54.806;9.640;2023-10-31T04:07:51;11.00;85.70
71668;DHT22;59504;54.806;9.640;2023-10-31T04:10:11;11.00;85.80
71668;DHT22;59504;54.806;9.640;2023-10-31T04:12:32;11.00;85.90
71668;DHT22;59504;54.806;9.640;2023-10-31T04:14:53;11.10;86.10
71668;DHT22;59504;54.806;9.640;2023-10-31T04:17:14;11.10;86.20
71668;DHT22;59504;54.806;9.640;2023-10-31T04:19:34;11.10;86.30
71668;DHT22;59504;54.806;9.640;2023-10-31T04:21:56;11.00;86.00
71668;DHT22;59504;54.806;9.640;2023-10-31T04:24:16;11.00;86.40
71668;DHT22;59504;54.806;9.640;2023-10-31T04:26:38;11.10;86.70
71668;DHT22;59504;54.806;9.640;2023-10-31T04:28:59;11.00;86.10
71668;DHT22;59504;54.806;9.640;2023-10-31T04:31:19;11.00;85.80
71668;DHT22;59504;54.806;9.640;2023-10-31T04:33:40;11.00;85.90
71668;DHT22;59504;54.806;9.640;2023-10-31T04:36:00;11.00;85.90
71668;DHT22;59504;54.806;9.640;2023-10-31T04:38:25;11.00;85.90
71668;DHT22;59504;54.806;9.640;2023-10-31T04:40:46;11.00;86.00
71668;DHT22;59504;54.806;9.640;2023-10-31T04:43:06;11.10;86.00
71668;DHT22;59504;54.806;9.640;2023-10-31T04:45:27;11.00;86.00
71668;DHT22;59504;54.806;9.640;2023-10-31T04:47:47;10.90;85.40
71668;DHT22;59504;54.806;9.640;2023-10-31T04:50:08;11.00;85.80
71668;DHT22;59504;54.806;9.640;2023-10-31T04:52:28;10.90;86.00
71668;DHT22;59504;54.806;9.640;2023-10-31T04:54:49;11.00;86.20
71668;DHT22;59504;54.806;9.640;2023-10-31T04:57:09;10.90;85.80
71668;DHT22;59504;54.806;9.640;2023-10-31T04:59:30;10.90;86.30
71668;DHT22;59504;54.806;9.640;2023-10-31T05:01:50;10.90;86.40
71668;DHT22;59504;54.806;9.640;2023-10-31T05:04:11;11.00;86.60
71668;DHT22;59504;54.806;9.640;2023-10-31T05:06:32;10.90;86.40
71668;DHT22;59504;54.806;9.640;2023-10-31T05:08:52;10.80;86.20
71668;DHT22;59504;54.806;9.640;2023-10-31T05:11:13;10.70;85.90
71668;DHT22;59504;54.806;9.640;2023-10-31T05:13:33;10.80;86.20
71668;DHT22;59504;54.806;9.640;2023-10-31T05:15:54;10.70;86.20
71668;DHT22;59504;54.806;9.640;2023-10-31T05:18:14;10.60;86.00
71668;DHT22;59504;54.806;9.640;2023-10-31T05:20:35;10.70;85.80
71668;DHT22;59504;54.806;9.640;2023-10-31T05:22:56;10.60;85.70
71668;DHT22;59504;54.806;9.640;2023-10-31T05:25:16;10.60;85.70
71668;DHT22;59504;54.806;9.640;2023-10-31T05:27:38;10.60;85.90
71668;DHT22;59504;54.806;9.640;2023-10-31T05:29:59;10.70;85.90
71668;DHT22;59504;54.806;9.640;2023-10-31T05:32:19;10.50;86.00
71668;DHT22;59504;54.806;9.640;2023-10-31T05:34:40;10.60;86.00
71668;DHT22;59504;54.806;9.640;2023-10-31T05:37:01;10.60;86.10
71668;DHT22;59504;54.806;9.640;2023-10-31T05:39:21;10.50;86.10
71668;DHT22;59504;54.806;9.640;2023-10-31T05:41:42;10.60;85.90
71668;DHT22;59504;54.806;9.640;2023-10-31T05:44:02;10.60;86.10
71668;DHT22;59504;54.806;9.640;2023-10-31T05:46:23;10.50;86.30
71668;DHT22;59504;54.806;9.640;2023-10-31T05:48:44;10.60;86.40
71668;DHT22;59504;54.806;9.640;2023-10-31T05:51:15;10.60;86.50
71668;DHT22;59504;54.806;9.640;2023-10-31T05:53:35;10.50;86.50
71668;DHT22;59504;54.806;9.640;2023-10-31T05:55:54;10.50;85.80
71668;DHT22;59504;54.806;9.640;2023-10-31T05:58:14;10.60;86.30
71668;DHT22;59504;54.806;9.640;2023-10-31T06:00:33;10.50;86.50
71668;DHT22;59504;54.806;9.640;2023-10-31T06:02:52;10.50;86.50
71668;DHT22;59504;54.806;9.640;2023-10-31T06:05:11;10.60;86.60
71668;DHT22;59504;54.806;9.640;2023-10-31T06:07:31;10.50;87.30
71668;DHT22;59504;54.806;9.640;2023-10-31T06:09:50;10.50;87.50
71668;DHT22;59504;54.806;9.640;2023-10-31T06:12:09;10.50;86.70
71668;DHT22;59504;54.806;9.640;2023-10-31T06:14:28;10.60;86.70
71668;DHT22;59504;54.806;9.640;2023-10-31T06:16:48;10.50;86.90
71668;DHT22;59504;54.806;9.640;2023-10-31T06:19:07;10.50;86.70
71668;DHT22;59504;54.806;9.640;2023-10-31T06:21:27;10.60;87.00
71668;DHT22;59504;54.806;9.640;2023-10-31T06:23:46;10.50;87.00
71668;DHT22;59504;54.806;9.640;2023-10-31T06:26:05;10.60;86.90
71668;DHT22;59504;54.806;9.640;2023-10-31T06:28:24;10.50;86.50
71668;DHT22;59504;54.806;9.640;2023-10-31T06:30:44;10.60;87.50
71668;DHT22;59504;54.806;9.640;2023-10-31T06:33:03;10.50;87.40
71668;DHT22;59504;54.806;9.640;2023-10-31T06:35:22;10.50;86.60
71668;DHT22;59504;54.806;9.640;2023-10-31T06:37:43;10.40;86.20
71668;DHT22;59504;54.806;9.640;2023-10-31T06:40:03;10.40;86.20
71668;DHT22;59504;54.806;9.640;2023-10-31T06:42:22;10.30;85.90
71668;DHT22;59504;54.806;9.640;2023-10-31T06:44:42;10.30;85.90
71668;DHT22;59504;54.806;9.640;2023-10-31T06:47:01;10.20;85.70
71668;DHT22;59504;54.806;9.640;2023-10-31T06:49:20;10.30;85.80
71668;DHT22;59504;54.806;9.640;2023-10-31T06:51:41;10.20;86.60
71668;DHT22;59504;54.806;9.640;2023-10-31T06:54:00;10.10;85.80
71668;DHT22;59504;54.806;9.640;2023-10-31T06:56:19;10.10;85.90
71668;DHT22;59504;54.806;9.640;2023-10-31T06:58:39;10.00;85.70
71668;DHT22;59504;54.806;9.640;2023-10-31T07:00:58;10.00;85.60
71668;DHT22;59504;54.806;9.640;2023-10-31T07:03:18;10.00;85.70
71668;DHT22;59504;54.806;9.640;2023-10-31T07:05:37;9.90;85.80
71668;DHT22;59504;54.806;9.640;2023-10-31T07:07:59;9.90;85.80
71668;DHT22;59504;54.806;9.640;2023-10-31T07:10:18;9.80;85.80
71668;DHT22;59504;54.806;9.640;2023-10-31T07:12:38;9.70;85.70
71668;DHT22;59504;54.806;9.640;2023-10-31T07:14:57;9.70;85.70
71668;DHT22;59504;54.806;9.640;2023-10-31T07:17:17;9.70;85.70
71668;DHT22;59504;54.806;9.640;2023-10-31T07:19:36;9.80;85.90
71668;DHT22;59504;54.806;9.640;2023-10-31T07:21:56;9.70;85.60
71668;DHT22;59504;54.806;9.640;2023-10-31T07:24:15;9.70;85.60
71668;DHT22;59504;54.806;9.640;2023-10-31T07:26:34;9.60;85.50
71668;DHT22;59504;54.806;9.640;2023-10-31T07:28:54;9.50;86.20
71668;DHT22;59504;54.806;9.640;2023-10-31T07:31:13;9.50;85.40
71668;DHT22;59504;54.806;9.640;2023-10-31T07:33:32;9.50;85.70
71668;DHT22;59504;54.806;9.640;2023-10-31T07:35:51;9.40;85.50
71668;DHT22;59504;54.806;9.640;2023-10-31T07:38:11;9.40;85.70
71668;DHT22;59504;54.806;9.640;2023-10-31T07:40:31;9.30;85.60
71668;DHT22;59504;54.806;9.640;2023-10-31T07:42:50;9.30;85.70
71668;DHT22;59504;54.806;9.640;2023-10-31T07:45:09;9.30;85.70
71668;DHT22;59504;54.806;9.640;2023-10-31T07:47:29;9.40;85.50
71668;DHT22;59504;54.806;9.640;2023-10-31T07:49:48;9.20;85.80
71668;DHT22;59504;54.806;9.640;2023-10-31T07:52:08;9.30;85.80
71668;DHT22;59504;54.806;9.640;2023-10-31T07:54:27;9.30;85.70
71668;DHT22;59504;54.806;9.640;2023-10-31T07:56:46;9.30;85.70
71668;DHT22;59504;54.806;9.640;2023-10-31T07:59:06;9.20;85.70
71668;DHT22;59504;54.806;9.640;2023-10-31T08:01:26;9.10;86.30
71668;DHT22;59504;54.806;9.640;2023-10-31T08:03:46;9.10;86.20
71668;DHT22;59504;54.806;9.640;2023-10-31T08:06:06;9.10;86.10
71668;DHT22;59504;54.806;9.640;2023-10-31T08:08:25;9.00;85.60
71668;DHT22;59504;54.806;9.640;2023-10-31T08:10:44;9.10;85.60
71668;DHT22;59504;54.806;9.640;2023-10-31T08:13:04;9.00;85.60
71668;DHT22;59504;54.806;9.640;2023-10-31T08:15:26;8.90;85.20
71668;DHT22;59504;54.806;9.640;2023-10-31T08:17:45;8.90;85.40
71668;DHT22;59504;54.806;9.640;2023-10-31T08:20:05;9.00;85.30
71668;DHT22;59504;54.806;9.640;2023-10-31T08:22:24;8.80;85.30
71668;DHT22;59504;54.806;9.640;2023-10-31T08:24:43;8.80;85.10
71668;DHT22;59504;54.806;9.640;2023-10-31T08:27:03;8.90;85.40
71668;DHT22;59504;54.806;9.640;2023-10-31T08:29:23;8.80;85.50
71668;DHT22;59504;54.806;9.640;2023-10-31T08:31:42;8.80;85.40
71668;DHT22;59504;54.806;9.640;2023-10-31T08:34:01;8.70;85.20
71668;DHT22;59504;54.806;9.640;2023-10-31T08:36:20;8.70;85.90
71668;DHT22;59504;54.806;9.640;2023-10-31T08:38:40;8.70;85.20
71668;DHT22;59504;54.806;9.640;2023-10-31T08:40:59;8.60;85.20
71668;DHT22;59504;54.806;9.640;2023-10-31T08:43:18;8.60;85.90
71668;DHT22;59504;54.806;9.640;2023-10-31T08:45:38;8.60;85.10
71668;DHT22;59504;54.806;9.640;2023-10-31T08:47:58;8.50;85.30
71668;DHT22;59504;54.806;9.640;2023-10-31T08:50:17;8.50;85.40
71668;DHT22;59504;54.806;9.640;2023-10-31T08:52:37;8.50;85.20
71668;DHT22;59504;54.806;9.640;2023-10-31T08:54:56;8.50;86.20
71668;DHT22;59504;54.806;9.640;2023-10-31T08:57:15;8.50;85.10
71668;DHT22;59504;54.806;9.640;2023-10-31T09:01:45;8.40;85.30
71668;DHT22;59504;54.806;9.640;2023-10-31T09:04:04;8.40;85.10
71668;DHT22;59504;54.806;9.640;2023-10-31T09:06:24;8.30;85.30
71668;DHT22;59504;54.806;9.640;2023-10-31T09:08:43;8.40;85.20
71668;DHT22;59504;54.806;9.640;2023-10-31T09:11:09;8.40;85.30
71668;DHT22;59504;54.806;9.640;2023-10-31T09:13:28;8.30;85.80
71668;DHT22;59504;54.806;9.640;2023-10-31T09:15:47;8.30;85.60
71668;DHT22;59504;54.806;9.640;2023-10-31T09:18:08;8.20;86.10
71668;DHT22;59504;54.806;9.640;2023-10-31T09:20:27;8.20;85.40
71668;DHT22;59504;54.806;9.640;2023-10-31T09:22:50;8.40;85.50
71668;DHT22;59504;54.806;9.640;2023-10-31T09:25:09;8.30;85.50
71668;DHT22;59504;54.806;9.640;2023-10-31T09:27:29;8.20;85.10
71668;DHT22;59504;54.806;9.640;2023-10-31T09:29:49;8.10;84.90
71668;DHT22;59504;54.806;9.640;2023-10-31T09:32:08;8.10;84.80
71668;DHT22;59504;54.806;9.640;2023-10-31T09:34:27;8.10;84.80
71668;DHT22;59504;54.806;9.640;2023-10-31T09:36:47;8.00;85.30
71668;DHT22;59504;54.806;9.640;2023-10-31T09:39:06;8.10;84.50
71668;DHT22;59504;54.806;9.640;2023-10-31T09:41:25;8.10;84.50
71668;DHT22;59504;54.806;9.640;2023-10-31T09:43:44;7.90;84.40
71668;DHT22;59504;54.806;9.640;2023-10-31T09:46:03;8.00;84.50
71668;DHT22;59504;54.806;9.640;2023-10-31T09:48:24;7.80;84.90
71668;DHT22;59504;54.806;9.640;2023-10-31T09:50:43;7.70;84.10
71668;DHT22;59504;54.806;9.640;2023-10-31T09:53:03;7.70;84.10
71668;DHT22;59504;54.806;9.640;2023-10-31T09:55:23;7.80;84.20
71668;DHT22;59504;54.806;9.640;2023-10-31T09:57:43;7.70;84.80
71668;DHT22;59504;54.806;9.640;2023-10-31T11:26:11;6.40;83.40
71668;DHT22;59504;54.806;9.640;2023-10-31T11:28:30;6.30;84.20
71668;DHT22;59504;54.806;9.640;2023-10-31T11:30:56;6.40;83.60
71668;DHT22;59504;54.806;9.640;2023-10-31T11:33:21;6.30;83.30
71668;DHT22;59504;54.806;9.640;2023-10-31T11:35:41;6.30;83.20
71668;DHT22;59504;54.806;9.640;2023-10-31T11:38:01;6.30;83.30
71668;DHT22;59504;54.806;9.640;2023-10-31T11:40:25;6.30;83.40
71668;DHT22;59504;54.806;9.640;2023-10-31T11:42:51;6.30;83.30
71668;DHT22;59504;54.806;9.640;2023-10-31T11:45:26;6.20;83.10
71668;DHT22;59504;54.806;9.640;2023-10-31T11:47:49;6.30;83.30
71668;DHT22;59504;54.806;9.640;2023-10-31T11:49:55;6.20;84.10
71668;DHT22;59504;54.806;9.640;2023-10-31T11:51:56;6.20;83.40
71668;DHT22;59504;54.806;9.640;2023-10-31T11:53:57;6.30;83.40
71668;DHT22;59504;54.806;9.640;2023-10-31T11:55:59;6.20;83.20
71668;DHT22;59504;54.806;9.640;2023-10-31T12:00:24;6.10;84.00
71668;DHT22;59504;54.806;9.640;2023-10-31T12:02:25;6.10;82.90
71668;DHT22;59504;54.806;9.640;2023-10-31T12:04:29;6.10;83.20
71668;DHT22;59504;54.806;9.640;2023-10-31T12:06:32;6.10;83.20
71668;DHT22;59504;54.806;9.640;2023-10-31T12:08:35;6.20;83.30
71668;DHT22;59504;54.806;9.640;2023-10-31T12:10:47;6.10;83.40
71668;DHT22;59504;54.806;9.640;2023-10-31T12:13:13;6.10;83.10
71668;DHT22;59504;54.806;9.640;2023-10-31T12:15:20;6.10;83.30
71668;DHT22;59504;54.806;9.640;2023-10-31T12:17:40;6.00;83.10
71668;DHT22;59504;54.806;9.640;2023-10-31T12:20:04;6.10;83.10
71668;DHT22;59504;54.806;9.640;2023-10-31T12:22:15;6.00;83.00
71668;DHT22;59504;54.806;9.640;2023-10-31T12:24:36;6.00;82.90
71668;DHT22;59504;54.806;9.640;2023-10-31T12:26:56;6.00;82.80
71668;DHT22;59504;54.806;9.640;2023-10-31T12:29:28;6.00;82.80
71668;DHT22;59504;54.806;9.640;2023-10-31T12:31:52;6.00;82.80
71668;DHT22;59504;54.806;9.640;2023-10-31T12:34:16;6.00;82.80
71668;DHT22;59504;54.806;9.640;2023-10-31T12:36:37;5.90;82.80
71668;DHT22;59504;54.806;9.640;2023-10-31T12:38:58;6.00;82.60
71668;DHT22;59504;54.806;9.640;2023-10-31T12:41:19;6.00;82.60
71668;DHT22;59504;54.806;9.640;2023-10-31T12:43:46;6.00;82.80
71668;DHT22;59504;54.806;9.640;2023-10-31T12:48:46;5.90;82.50
71668;DHT22;59504;54.806;9.640;2023-10-31T12:51:10;5.90;82.40
71668;DHT22;59504;54.806;9.640;2023-10-31T12:53:29;5.90;82.30
71668;DHT22;59504;54.806;9.640;2023-10-31T12:55:55;6.00;82.50
71668;DHT22;59504;54.806;9.640;2023-10-31T12:58:22;6.00;82.30
71668;DHT22;59504;54.806;9.640;2023-10-31T13:00:46;5.90;82.30
71668;DHT22;59504;54.806;9.640;2023-10-31T13:03:08;6.00;82.00
71668;DHT22;59504;54.806;9.640;2023-10-31T13:05:29;5.90;82.10
71668;DHT22;59504;54.806;9.640;2023-10-31T13:07:50;6.00;81.80
71668;DHT22;59504;54.806;9.640;2023-10-31T13:10:12;5.90;81.70
71668;DHT22;59504;54.806;9.640;2023-10-31T13:12:35;5.90;82.00
71668;DHT22;59504;54.806;9.640;2023-10-31T13:14:56;5.80;81.70
71668;DHT22;59504;54.806;9.640;2023-10-31T13:17:17;5.90;81.20
71668;DHT22;59504;54.806;9.640;2023-10-31T13:19:39;5.90;80.90
71668;DHT22;59504;54.806;9.640;2023-10-31T13:22:01;5.90;81.10
71668;DHT22;59504;54.806;9.640;2023-10-31T13:24:21;5.90;81.40
71668;DHT22;59504;54.806;9.640;2023-10-31T13:26:42;5.90;81.00
71668;DHT22;59504;54.806;9.640;2023-10-31T13:29:05;5.90;81.30
71668;DHT22;59504;54.806;9.640;2023-10-31T13:31:28;5.90;81.30
71668;DHT22;59504;54.806;9.640;2023-10-31T13:33:51;5.90;80.80
71668;DHT22;59504;54.806;9.640;2023-10-31T13:36:12;5.90;81.00
71668;DHT22;59504;54.806;9.640;2023-10-31T13:38:32;6.00;81.20
71668;DHT22;59504;54.806;9.640;2023-10-31T13:40:53;6.00;80.70
71668;DHT22;59504;54.806;9.640;2023-10-31T13:43:13;5.90;80.80
71668;DHT22;59504;54.806;9.640;2023-10-31T13:45:34;6.00;80.50
71668;DHT22;59504;54.806;9.640;2023-10-31T13:47:54;6.00;80.50
71668;DHT22;59504;54.806;9.640;2023-10-31T13:50:15;6.00;80.20
71668;DHT22;59504;54.806;9.640;2023-10-31T13:52:36;6.00;79.90
71668;DHT22;59504;54.806;9.640;2023-10-31T13:54:58;5.90;79.00
71668;DHT22;59504;54.806;9.640;2023-10-31T13:57:22;6.00;79.50
71668;DHT22;59504;54.806;9.640;2023-10-31T13:59:42;5.90;79.10
71668;DHT22;59504;54.806;9.640;2023-10-31T14:02:03;6.00;79.10
71668;DHT22;59504;54.806;9.640;2023-10-31T14:04:36;5.90;79.10
71668;DHT22;59504;54.806;9.640;2023-10-31T14:07:02;5.90;79.10
71668;DHT22;59504;54.806;9.640;2023-10-31T14:09:28;5.90;78.90
71668;DHT22;59504;54.806;9.640;2023-10-31T14:11:50;5.90;79.10
71668;DHT22;59504;54.806;9.640;2023-10-31T14:14:11;5.90;78.70
71668;DHT22;59504;54.806;9.640;2023-10-31T14:16:33;5.90;78.60
71668;DHT22;59504;54.806;9.640;2023-10-31T14:18:54;6.00;78.80
71668;DHT22;59504;54.806;9.640;2023-10-31T14:21:15;5.90;78.50
71668;DHT22;59504;54.806;9.640;2023-10-31T14:23:36;5.80;78.50
71668;DHT22;59504;54.806;9.640;2023-10-31T14:26:00;5.90;78.70
71668;DHT22;59504;54.806;9.640;2023-10-31T14:28:24;5.90;78.40
71668;DHT22;59504;54.806;9.640;2023-10-31T14:30:47;5.90;78.30
71668;DHT22;59504;54.806;9.640;2023-10-31T14:33:12;5.90;78.60
71668;DHT22;59504;54.806;9.640;2023-10-31T14:35:38;5.90;79.40
71668;DHT22;59504;54.806;9.640;2023-10-31T14:37:57;5.80;79.40
71668;DHT22;59504;54.806;9.640;2023-10-31T14:40:17;5.90;78.40
71668;DHT22;59504;54.806;9.640;2023-10-31T14:42:37;6.00;78.30
71668;DHT22;59504;54.806;9.640;2023-10-31T14:45:04;5.90;77.80
71668;DHT22;59504;54.806;9.640;2023-10-31T14:47:23;5.90;77.80
71668;DHT22;59504;54.806;9.640;2023-10-31T14:49:43;6.00;77.90
71668;DHT22;59504;54.806;9.640;2023-10-31T14:52:02;5.80;78.40
71668;DHT22;59504;54.806;9.640;2023-10-31T14:54:23;5.90;77.40
71668;DHT22;59504;54.806;9.640;2023-10-31T14:56:44;5.80;77.60
71668;DHT22;59504;54.806;9.640;2023-10-31T14:59:05;5.90;76.90
71668;DHT22;59504;54.806;9.640;2023-10-31T15:01:25;5.90;77.30
71668;DHT22;59504;54.806;9.640;2023-10-31T15:03:44;5.90;77.20
71668;DHT22;59504;54.806;9.640;2023-10-31T15:06:07;5.90;77.20
71668;DHT22;59504;54.806;9.640;2023-10-31T15:08:34;5.80;77.80
71668;DHT22;59504;54.806;9.640;2023-10-31T15:10:53;5.90;76.70
71668;DHT22;59504;54.806;9.640;2023-10-31T15:13:13;5.80;76.30
71668;DHT22;59504;54.806;9.640;2023-10-31T15:15:33;5.80;76.50
71668;DHT22;59504;54.806;9.640;2023-10-31T15:17:52;5.80;76.30
71668;DHT22;59504;54.806;9.640;2023-10-31T15:20:13;5.80;76.40
71668;DHT22;59504;54.806;9.640;2023-10-31T15:22:35;5.70;76.40
71668;DHT22;59504;54.806;9.640;2023-10-31T15:24:55;5.70;76.30
71668;DHT22;59504;54.806;9.640;2023-10-31T15:27:14;5.80;76.30
71668;DHT22;59504;54.806;9.640;2023-10-31T15:29:36;5.70;75.90
71668;DHT22;59504;54.806;9.640;2023-10-31T15:31:55;5.80;75.60
71668;DHT22;59504;54.806;9.640;2023-10-31T15:34:15;5.70;75.60
71668;DHT22;59504;54.806;9.640;2023-10-31T15:36:34;5.70;75.40
71668;DHT22;59504;54.806;9.640;2023-10-31T15:38:53;5.70;75.40
71668;DHT22;59504;54.806;9.640;2023-10-31T15:41:13;5.60;75.30
71668;DHT22;59504;54.806;9.640;2023-10-31T15:43:32;5.70;75.20
71668;DHT22;59504;54.806;9.640;2023-10-31T15:45:51;5.50;74.80
71668;DHT22;59504;54.806;9.640;2023-10-31T15:48:10;5.60;75.50
71668;DHT22;59504;54.806;9.640;2023-10-31T15:50:30;5.50;75.60
71668;DHT22;59504;54.806;9.640;2023-10-31T15:52:49;5.60;74.90
71668;DHT22;59504;54.806;9.640;2023-10-31T15:55:08;5.40;75.10
71668;DHT22;59504;54.806;9.640;2023-10-31T15:57:28;5.40;75.00
71668;DHT22;59504;54.806;9.640;2023-10-31T15:59:49;5.40;75.00
71668;DHT22;59504;54.806;9.640;2023-10-31T16:02:09;5.40;75.10
71668;DHT22;59504;54.806;9.640;2023-10-31T16:04:28;5.30;75.70
71668;DHT22;59504;54.806;9.640;2023-10-31T16:06:47;5.30;75.80
71668;DHT22;59504;54.806;9.640;2023-10-31T16:09:07;5.40;75.00
71668;DHT22;59504;54.806;9.640;2023-10-31T16:11:29;5.20;75.10
71668;DHT22;59504;54.806;9.640;2023-10-31T16:13:48;5.40;75.30